createdAt,value
2018-01-12T00:02:10.449Z,70.37
2018-01-12T00:04:38.717Z,80.53
2018-01-12T00:07:06.978Z,68.47
2018-01-12T00:09:34.482Z,73.63
2018-01-12T00:12:02.002Z,74.97
2018-01-12T00:14:29.517Z,71.97
2018-01-12T00:16:57.014Z,80.23
2018-01-12T00:19:24.510Z,70.63
2018-01-12T00:21:52.783Z,71.10
2018-01-12T00:24:21.041Z,70.33
2018-01-12T00:26:49.324Z,76.37
2018-01-12T00:29:17.608Z,71.23
2018-01-12T00:31:45.894Z,76.90
2018-01-12T00:34:13.410Z,66.77
2018-01-12T00:36:40.901Z,69.57
2018-01-12T00:39:09.175Z,70.90
2018-01-12T00:41:37.441Z,71.77
2018-01-12T00:44:04.935Z,72.83
2018-01-12T00:46:32.444Z,67.80
2018-01-12T00:48:59.946Z,72.63
2018-01-12T00:51:27.468Z,66.43
2018-01-12T00:53:55.446Z,66.03
2018-01-12T00:56:22.983Z,71.80
2018-01-12T00:59:28.567Z,64.87
2018-01-12T01:01:56.854Z,64.57
2018-01-12T01:04:25.224Z,61.87
2018-01-12T01:06:52.734Z,71.73
2018-01-12T01:09:20.238Z,69.27
2018-01-12T01:11:48.500Z,59.47
2018-01-12T01:14:16.212Z,66.33
2018-01-12T01:16:43.716Z,68.97
2018-01-12T01:19:11.211Z,77.30
2018-01-12T01:21:39.478Z,68.47
2018-01-12T01:24:07.741Z,67.10
2018-01-12T01:26:36.046Z,65.17
2018-01-12T01:29:03.533Z,60.80
2018-01-12T01:31:31.030Z,65.63
2018-01-12T01:33:58.534Z,64.43
2018-01-12T01:36:26.028Z,67.03
2018-01-12T01:38:53.539Z,69.43
2018-01-12T01:41:21.038Z,64.87
2018-01-12T01:43:48.554Z,62.87
2018-01-12T01:46:16.064Z,59.47
2018-01-12T01:48:43.561Z,63.20
2018-01-12T01:51:11.839Z,64.80
2018-01-12T01:53:40.146Z,69.80
2018-01-12T01:56:08.445Z,70.10
2018-01-12T01:58:35.945Z,73.00
2018-01-12T02:01:04.213Z,65.23
2018-01-12T02:03:31.726Z,67.57
2018-01-12T02:05:59.217Z,65.67
2018-01-12T02:08:26.714Z,78.73
2018-01-12T02:10:54.230Z,65.10
2018-01-12T02:13:21.719Z,61.87
2018-01-12T02:15:49.991Z,69.97
2018-01-12T02:18:18.266Z,66.20
2018-01-12T02:20:46.526Z,67.90
2018-01-12T02:23:14.038Z,64.37
2018-01-12T02:25:41.530Z,61.80
2018-01-12T02:28:09.040Z,69.43
2018-01-12T02:30:36.530Z,72.20
2018-01-12T02:33:04.037Z,68.00
2018-01-12T02:35:32.313Z,65.47
2018-01-12T02:38:00.578Z,65.33
2018-01-12T02:40:28.150Z,67.97
2018-01-12T02:42:56.426Z,70.73
2018-01-12T02:45:24.682Z,66.27
2018-01-12T02:47:52.185Z,67.73
2018-01-12T02:50:19.689Z,69.40
2018-01-12T02:52:47.200Z,62.80
2018-01-12T02:55:14.697Z,67.03
2018-01-12T02:57:42.194Z,72.60
2018-01-12T03:00:10.462Z,71.87
2018-01-12T03:02:37.962Z,69.73
2018-01-12T03:05:05.474Z,77.70
2018-01-12T03:07:32.961Z,76.03
2018-01-12T03:10:01.226Z,79.57
2018-01-12T03:12:29.503Z,77.70
2018-01-12T03:14:57.760Z,84.13
2018-01-12T03:17:25.283Z,70.37
2018-01-12T03:19:52.773Z,75.47
2018-01-12T03:22:20.274Z,76.03
2018-01-12T03:24:47.790Z,75.60
2018-01-12T03:27:15.286Z,76.50
2018-01-12T03:29:43.555Z,79.97
2018-01-12T03:32:11.821Z,77.93
2018-01-12T03:34:40.101Z,80.83
2018-01-12T03:37:08.357Z,83.40
2018-01-12T03:39:35.857Z,77.40
2018-01-12T03:42:03.364Z,78.57
2018-01-12T03:44:30.859Z,79.93
2018-01-12T03:46:59.134Z,84.93
2018-01-12T03:49:27.392Z,84.33
2018-01-12T03:51:54.917Z,89.43
2018-01-12T03:54:22.426Z,90.03
2018-01-12T03:56:50.689Z,88.50
2018-01-12T03:59:18.223Z,97.67
2018-01-12T04:01:45.721Z,88.23
2018-01-12T04:04:13.998Z,95.17
2018-01-12T04:06:42.257Z,101.53
2018-01-12T04:09:09.762Z,98.90
2018-01-12T04:11:37.274Z,108.40
2018-01-12T04:14:04.779Z,118.83
2018-01-12T04:16:32.286Z,110.37
2018-01-12T04:18:59.781Z,106.03
2018-01-12T04:21:28.058Z,106.07
2018-01-12T04:23:56.320Z,110.87
2018-01-12T04:26:24.581Z,128.07
2018-01-12T04:28:52.094Z,127.30
2018-01-12T04:31:19.594Z,126.67
2018-01-12T04:33:47.108Z,133.80
2018-01-12T04:36:14.606Z,126.87
2018-01-12T04:38:42.114Z,133.17
2018-01-12T04:41:09.618Z,130.70
2018-01-12T04:43:37.141Z,139.10
2018-01-12T04:46:04.640Z,133.40
2018-01-12T04:48:32.129Z,144.00
2018-01-12T04:51:00.417Z,145.93
2018-01-12T04:53:28.682Z,121.83
2018-01-12T04:55:56.957Z,150.57
2018-01-12T04:58:25.213Z,148.23
2018-01-12T05:00:52.724Z,141.37
2018-01-12T05:03:20.225Z,142.93
2018-01-12T05:05:47.743Z,145.97
2018-01-12T05:08:15.234Z,148.83
2018-01-12T05:10:42.785Z,150.83
2018-01-12T05:13:11.058Z,164.73
2018-01-12T05:15:38.562Z,160.40
2018-01-12T05:18:06.842Z,172.33
2018-01-12T05:20:35.153Z,161.37
2018-01-12T05:23:02.674Z,134.10
2018-01-12T05:25:30.950Z,153.40
2018-01-12T05:27:59.233Z,131.03
2018-01-12T05:30:27.502Z,141.27
2018-01-12T05:32:55.761Z,138.63
2018-01-12T05:35:24.062Z,137.93
2018-01-12T05:37:52.340Z,160.63
2018-01-12T05:40:20.666Z,140.13
2018-01-12T05:42:48.163Z,163.30
2018-01-12T05:45:16.454Z,143.30
2018-01-12T05:47:44.710Z,140.70
2018-01-12T05:50:12.234Z,133.00
2018-01-12T05:52:39.728Z,149.77
2018-01-12T05:55:07.227Z,136.60
2018-01-12T05:57:34.733Z,160.20
2018-01-12T06:00:02.240Z,156.50
2018-01-12T06:02:41.493Z,152.97
2018-01-12T06:08:17.925Z,164.97
2018-01-12T06:10:45.417Z,147.10
2018-01-12T06:13:13.692Z,143.70
2018-01-12T06:15:41.954Z,146.90
2018-01-12T06:18:10.242Z,140.07
2018-01-12T06:20:38.504Z,141.70
2018-01-12T06:23:06.804Z,132.73
2018-01-12T06:25:34.305Z,159.90
2018-01-12T06:28:01.834Z,145.53
2018-01-12T06:30:29.342Z,149.17
2018-01-12T06:32:56.842Z,139.87
2018-01-12T06:35:24.354Z,162.97
2018-01-12T06:37:51.850Z,134.57
2018-01-12T06:40:22.095Z,131.37
2018-01-12T06:42:49.599Z,138.97
2018-01-12T06:45:17.089Z,163.87
2018-01-12T06:47:45.362Z,158.33
2018-01-12T06:50:13.631Z,150.47
2018-01-12T06:52:41.912Z,166.67
2018-01-12T06:55:10.184Z,154.33
2018-01-12T06:57:38.470Z,157.37
2018-01-12T07:00:06.738Z,159.73
2018-01-12T07:02:35.005Z,150.37
2018-01-12T07:05:02.509Z,175.80
2018-01-12T07:07:30.002Z,147.57
2018-01-12T07:09:57.526Z,148.40
2018-01-12T07:12:25.040Z,157.33
2018-01-12T07:14:53.333Z,159.10
2018-01-12T07:17:21.602Z,144.10
2018-01-12T07:19:49.940Z,157.63
2018-01-12T07:22:24.405Z,146.90
2018-01-12T07:24:52.666Z,149.87
2018-01-12T07:27:20.170Z,171.53
2018-01-12T07:29:47.669Z,166.83
2018-01-12T07:32:15.191Z,170.63
2018-01-12T07:34:42.686Z,167.90
2018-01-12T07:37:10.193Z,171.03
2018-01-12T07:39:37.769Z,161.20
2018-01-12T07:42:05.330Z,166.37
2018-01-12T07:44:32.834Z,166.60
2018-01-12T07:47:00.337Z,177.97
2018-01-12T07:49:27.866Z,175.63
2018-01-12T07:51:56.130Z,167.27
2018-01-12T07:54:23.637Z,157.73
2018-01-12T07:56:51.157Z,181.17
2018-01-12T07:59:18.655Z,162.33
2018-01-12T08:01:51.828Z,164.63
2018-01-12T08:04:20.096Z,170.10
2018-01-12T08:06:48.404Z,187.43
2018-01-12T08:09:15.897Z,182.63
2018-01-12T08:11:43.396Z,175.67
2018-01-12T08:14:11.677Z,195.73
2018-01-12T08:16:40.363Z,181.97
2018-01-12T08:19:07.925Z,173.37
2018-01-12T08:21:36.189Z,193.70
2018-01-12T08:24:04.494Z,182.80
2018-01-12T08:26:31.998Z,184.73
2018-01-12T08:28:59.489Z,181.07
2018-01-12T08:31:27.769Z,201.50
2018-01-12T08:33:56.053Z,170.53
2018-01-12T08:36:24.322Z,186.17
2018-01-12T08:38:52.583Z,182.53
2018-01-12T08:41:20.901Z,197.93
2018-01-12T08:43:48.405Z,200.17
2018-01-12T08:46:15.920Z,191.60
2018-01-12T08:48:43.417Z,202.77
2018-01-12T08:51:10.911Z,193.20
2018-01-12T08:53:39.180Z,211.07
2018-01-12T08:56:07.452Z,199.40
2018-01-12T08:58:35.729Z,191.90
2018-01-12T09:01:03.995Z,186.97
2018-01-12T09:03:32.299Z,205.93
2018-01-12T09:06:01.300Z,205.17
2018-01-12T09:08:28.813Z,187.93
2018-01-12T09:10:56.308Z,194.20
2018-01-12T09:13:36.554Z,179.33
2018-01-12T09:16:06.620Z,167.50
2018-01-12T09:18:46.119Z,183.27
2018-01-12T09:21:24.508Z,179.13
2018-01-12T09:23:54.667Z,168.53
2018-01-12T09:26:22.157Z,152.63
2018-01-12T09:28:49.673Z,150.97
2018-01-12T09:31:17.955Z,157.13
2018-01-12T09:33:48.199Z,155.90
2018-01-12T09:36:15.717Z,160.23
2018-01-12T09:38:53.057Z,162.73
2018-01-12T09:41:20.566Z,199.23
2018-01-12T09:43:48.061Z,190.57
2018-01-12T09:46:15.577Z,164.30
2018-01-12T09:48:51.824Z,165.23
2018-01-12T09:51:19.333Z,158.07
2018-01-12T09:53:46.822Z,166.13
2018-01-12T09:56:14.333Z,154.23
2018-01-12T09:58:45.451Z,142.97
2018-01-12T10:01:25.794Z,149.20
2018-01-12T10:03:53.289Z,136.37
2018-01-12T10:06:21.547Z,144.27
2018-01-12T10:09:03.930Z,132.13
2018-01-12T10:11:31.426Z,132.17
2018-01-12T10:13:58.937Z,134.27
2018-01-12T10:16:26.431Z,147.17
2018-01-12T10:18:53.921Z,151.60
2018-01-12T10:21:33.861Z,151.80
2018-01-12T10:24:02.118Z,143.53
2018-01-12T10:26:29.641Z,148.47
2018-01-12T10:29:07.072Z,146.67
2018-01-12T10:31:41.008Z,142.50
2018-01-12T10:34:09.274Z,143.07
2018-01-12T10:36:39.461Z,150.90
2018-01-12T10:39:18.867Z,153.97
2018-01-12T10:41:58.327Z,155.57
2018-01-12T10:44:25.814Z,156.67
2018-01-12T10:47:05.227Z,145.30
2018-01-12T10:49:33.628Z,142.10
2018-01-12T10:52:06.065Z,143.43
2018-01-12T10:54:33.561Z,139.23
2018-01-12T10:57:01.061Z,145.13
2018-01-12T10:59:28.577Z,139.77
2018-01-12T11:01:56.073Z,147.20
2018-01-12T11:04:23.586Z,137.23
2018-01-12T11:06:51.089Z,135.90
2018-01-12T11:09:18.601Z,127.23
2018-01-12T11:11:46.093Z,142.63
2018-01-12T11:14:14.373Z,148.40
2018-01-12T11:16:42.640Z,154.17
2018-01-12T11:19:10.921Z,169.77
2018-01-12T11:21:39.193Z,154.50
2018-01-12T11:24:07.453Z,151.70
2018-01-12T11:26:34.972Z,141.10
2018-01-12T11:29:02.498Z,133.07
2018-01-12T11:33:46.176Z,150.32
2018-01-12T11:36:13.734Z,144.37
2018-01-12T11:38:41.231Z,150.93
2018-01-12T11:41:08.727Z,148.90
2018-01-12T11:43:37.009Z,157.93
2018-01-12T11:46:05.272Z,146.33
2018-01-12T11:48:33.554Z,158.40
2018-01-12T11:51:01.822Z,154.97
2018-01-12T11:53:36.029Z,156.60
2018-01-12T11:56:03.531Z,149.27
2018-01-12T11:58:31.098Z,152.40
2018-01-12T12:00:58.597Z,155.20
2018-01-12T12:03:26.109Z,149.23
2018-01-12T12:05:53.621Z,159.90
2018-01-12T12:08:21.132Z,154.00
2018-01-12T12:10:48.646Z,150.77
2018-01-12T12:13:16.149Z,163.53
2018-01-12T12:15:43.702Z,159.87
2018-01-12T12:18:11.201Z,167.97
2018-01-12T12:20:38.720Z,146.03
2018-01-12T12:23:06.238Z,153.60
2018-01-12T12:25:35.285Z,152.77
2018-01-12T12:28:02.822Z,150.77
2018-01-12T12:30:31.090Z,177.80
2018-01-12T12:32:59.364Z,157.67
2018-01-12T12:35:27.618Z,153.40
2018-01-12T12:37:55.123Z,149.33
2018-01-12T12:40:22.629Z,155.97
2018-01-12T12:42:50.333Z,163.97
2018-01-12T12:45:17.841Z,157.00
2018-01-12T12:47:45.393Z,174.33
2018-01-12T12:50:12.901Z,157.13
2018-01-12T12:52:41.160Z,158.60
2018-01-12T12:55:08.673Z,159.67
2018-01-12T12:57:36.201Z,160.30
2018-01-12T13:00:04.498Z,190.43
2018-01-12T13:02:32.030Z,161.33
2018-01-12T13:05:00.335Z,145.60
2018-01-12T13:07:27.897Z,152.03
2018-01-12T13:09:55.389Z,150.73
2018-01-12T13:12:22.895Z,155.57
2018-01-12T13:14:50.413Z,149.87
2018-01-12T13:17:17.934Z,149.20
2018-01-12T13:19:45.423Z,158.30
2018-01-12T13:22:12.925Z,147.97
2018-01-12T13:24:41.183Z,149.33
2018-01-12T13:27:08.786Z,162.17
2018-01-12T13:29:36.282Z,161.13
2018-01-12T13:32:03.824Z,163.33
2018-01-12T13:34:31.363Z,155.10
2018-01-12T13:36:58.884Z,151.47
2018-01-12T13:39:28.173Z,159.30
2018-01-12T13:41:55.661Z,152.23
2018-01-12T13:44:23.942Z,158.87
2018-01-12T13:46:51.447Z,152.23
2018-01-12T13:49:20.726Z,163.37
2018-01-12T13:51:48.245Z,152.20
2018-01-12T13:54:16.501Z,157.07
2018-01-12T13:56:44.011Z,151.73
2018-01-12T13:59:11.508Z,149.50
2018-01-12T14:01:39.042Z,149.50
2018-01-12T14:04:06.533Z,152.80
2018-01-12T14:06:34.029Z,156.67
2018-01-12T14:09:01.537Z,160.67
2018-01-12T14:11:29.033Z,157.47
2018-01-12T14:13:57.301Z,149.83
2018-01-12T14:16:24.807Z,145.97
2018-01-12T14:18:52.323Z,148.10
2018-01-12T14:21:20.582Z,150.77
2018-01-12T14:23:48.098Z,137.90
2018-01-12T14:26:15.605Z,148.70
2018-01-12T14:28:43.093Z,134.17
2018-01-12T14:31:11.365Z,141.20
2018-01-12T14:33:39.626Z,138.13
2018-01-12T14:36:07.906Z,134.43
2018-01-12T14:38:36.173Z,137.33
2018-01-12T14:41:03.681Z,137.73
2018-01-12T14:43:31.178Z,149.30
2018-01-12T14:45:58.700Z,141.03
2018-01-12T14:48:26.201Z,138.20
2018-01-12T14:50:53.711Z,153.07
2018-01-12T14:53:21.213Z,137.00
2018-01-12T14:55:48.703Z,137.80
2018-01-12T14:58:16.976Z,177.30
2018-01-12T15:00:45.250Z,131.50
2018-01-12T15:03:13.565Z,131.67
2018-01-12T15:05:41.067Z,133.17
2018-01-12T15:08:08.577Z,132.60
2018-01-12T15:10:36.084Z,122.20
2018-01-12T15:13:03.595Z,130.23
2018-01-12T15:15:31.106Z,125.60
2018-01-12T15:17:58.612Z,125.20
2018-01-12T15:20:26.157Z,129.30
2018-01-12T15:22:53.653Z,118.40
2018-01-12T15:25:21.175Z,116.97
2018-01-12T15:27:48.669Z,121.77
2018-01-12T15:30:16.182Z,113.80
2018-01-12T15:32:44.463Z,121.77
2018-01-12T15:35:12.770Z,118.10
2018-01-12T15:37:40.290Z,123.60
2018-01-12T15:40:08.553Z,114.03
2018-01-12T15:42:36.827Z,105.23
2018-01-12T15:45:04.318Z,118.47
2018-01-12T15:47:31.836Z,118.63
2018-01-12T15:49:59.407Z,114.90
2018-01-12T15:52:27.697Z,119.50
2018-01-12T15:54:55.973Z,120.17
2018-01-12T15:57:24.246Z,112.27
2018-01-12T15:59:51.760Z,113.63
2018-01-12T16:02:19.269Z,125.17
2018-01-12T16:04:47.545Z,109.33
2018-01-12T16:07:15.856Z,117.50
2018-01-12T16:09:43.385Z,121.60
2018-01-12T16:12:11.657Z,126.57
2018-01-12T16:14:39.949Z,133.07
2018-01-12T16:17:07.462Z,144.60
2018-01-12T16:19:34.976Z,136.33
2018-01-12T16:22:02.547Z,133.80
2018-01-12T16:24:30.075Z,131.60
2018-01-12T16:26:58.353Z,140.83
2018-01-12T16:29:26.610Z,141.40
2018-01-12T16:31:54.123Z,144.03
2018-01-12T16:34:21.633Z,143.93
2018-01-12T16:36:49.130Z,147.77
2018-01-12T16:39:17.472Z,148.67
2018-01-12T16:41:44.217Z,145.33
2018-01-12T16:44:12.508Z,151.00
2018-01-12T16:46:40.770Z,151.33
2018-01-12T16:49:09.069Z,155.80
2018-01-12T16:51:37.397Z,155.80
2018-01-12T16:54:04.889Z,151.23
2018-01-12T16:56:33.160Z,152.23
2018-01-12T16:59:01.454Z,168.80
2018-01-12T17:01:29.794Z,149.90
2018-01-12T17:03:57.330Z,150.00
2018-01-12T17:06:25.705Z,146.20
2018-01-12T17:08:53.215Z,145.37
2018-01-12T17:11:21.486Z,147.40
2018-01-12T17:13:49.771Z,152.73
2018-01-12T17:16:18.033Z,159.87
2018-01-12T17:18:45.558Z,163.27
2018-01-12T17:21:13.146Z,151.67
2018-01-12T17:23:40.645Z,164.50
2018-01-12T17:26:08.153Z,143.57
2018-01-12T17:28:35.648Z,150.97
2018-01-12T17:31:03.953Z,139.70
2018-01-12T17:33:31.489Z,138.40
2018-01-12T17:35:59.006Z,157.37
2018-01-12T17:38:26.513Z,151.13
2018-01-12T17:40:54.038Z,149.30
2018-01-12T17:43:21.569Z,139.50
2018-01-12T17:45:49.096Z,141.53
2018-01-12T17:48:16.635Z,137.67
2018-01-12T17:50:44.907Z,144.73
2018-01-12T17:53:13.314Z,142.23
2018-01-12T17:55:40.820Z,187.73
2018-01-12T17:58:08.318Z,144.93
2018-01-12T18:00:36.589Z,154.37
2018-01-12T18:03:04.921Z,150.10
2018-01-12T18:05:32.440Z,151.93
2018-01-12T18:07:59.934Z,140.50
2018-01-12T18:10:27.458Z,146.30
2018-01-12T18:12:55.720Z,139.13
2018-01-12T18:15:23.985Z,155.73
2018-01-12T18:17:52.261Z,139.07
2018-01-12T18:20:19.761Z,142.43
2018-01-12T18:22:47.274Z,155.20
2018-01-12T18:25:14.776Z,151.67
2018-01-12T18:27:42.297Z,163.40
2018-01-12T18:30:09.804Z,146.40
2018-01-12T18:32:37.314Z,159.60
2018-01-12T18:35:04.825Z,162.83
2018-01-12T18:37:32.333Z,151.00
2018-01-12T18:40:00.638Z,148.73
2018-01-12T18:42:28.129Z,157.50
2018-01-12T18:44:55.772Z,149.43
2018-01-12T18:47:23.299Z,146.87
2018-01-12T18:49:50.870Z,139.30
2018-01-12T18:52:19.145Z,149.20
2018-01-12T18:54:47.413Z,159.80
2018-01-12T18:57:15.697Z,148.90
2018-01-12T18:59:59.605Z,144.07
2018-01-12T19:02:27.227Z,140.70
2018-01-12T19:04:54.745Z,146.23
2018-01-12T19:07:23.053Z,155.30
2018-01-12T19:09:50.557Z,146.50
2018-01-12T19:12:18.079Z,144.30
2018-01-12T19:14:45.586Z,149.37
2018-01-12T19:17:13.085Z,134.97
2018-01-12T19:19:40.621Z,134.73
2018-01-12T19:22:08.883Z,132.30
2018-01-12T19:24:36.390Z,135.00
2018-01-12T19:27:03.910Z,134.30
2018-01-12T19:29:32.182Z,130.67
2018-01-12T19:31:59.701Z,132.73
2018-01-12T19:34:27.217Z,144.23
2018-01-12T19:36:55.506Z,137.20
2018-01-12T19:39:23.766Z,145.13
2018-01-12T19:41:52.046Z,143.77
2018-01-12T19:44:20.340Z,165.17
2018-01-12T19:46:47.838Z,147.57
2018-01-12T19:49:15.350Z,140.03
2018-01-12T19:51:43.625Z,148.17
2018-01-12T19:54:11.883Z,137.97
2018-01-12T19:56:39.393Z,144.90
2018-01-12T19:59:06.885Z,136.03
2018-01-12T20:01:34.389Z,150.40
2018-01-12T20:04:01.917Z,144.43
2018-01-12T20:06:29.431Z,140.03
2018-01-12T20:08:56.952Z,147.53
2018-01-12T20:11:25.250Z,133.30
2018-01-12T20:13:52.750Z,140.90
2018-01-12T20:16:20.241Z,144.20
2018-01-12T20:18:48.522Z,132.50
2018-01-12T20:21:16.789Z,128.17
2018-01-12T20:23:45.069Z,134.63
2018-01-12T20:26:13.741Z,130.20
2018-01-12T20:28:41.249Z,137.17
2018-01-12T20:31:08.750Z,145.70
2018-01-12T20:33:37.772Z,148.13
2018-01-12T20:36:06.059Z,146.10
2018-01-12T20:38:33.578Z,142.10
2018-01-12T20:41:01.081Z,128.40
2018-01-12T20:43:28.578Z,135.57
2018-01-12T20:45:56.086Z,134.03
2018-01-12T20:48:24.357Z,128.00
2018-01-12T20:50:52.648Z,133.00
2018-01-12T20:53:20.943Z,131.57
2018-01-12T20:55:48.440Z,130.77
2018-01-12T20:58:15.945Z,132.37
2018-01-12T21:00:43.461Z,150.20
2018-01-12T21:03:10.976Z,143.10
2018-01-12T21:05:38.485Z,139.33
2018-01-12T21:08:05.978Z,129.50
2018-01-12T21:10:34.254Z,135.43
2018-01-12T21:13:02.513Z,156.47
2018-01-12T21:15:30.789Z,127.67
2018-01-12T21:17:59.103Z,134.60
2018-01-12T21:20:26.660Z,140.93
2018-01-12T21:22:54.183Z,154.00
2018-01-12T21:25:22.442Z,139.70
2018-01-12T21:27:51.462Z,155.03
2018-01-12T21:30:19.717Z,135.13
2018-01-12T21:32:47.242Z,129.60
2018-01-12T21:35:14.733Z,132.70
2018-01-12T21:37:42.245Z,145.23
2018-01-12T21:40:09.754Z,128.53
2018-01-12T21:42:37.250Z,128.33
2018-01-12T21:45:04.767Z,178.27
2018-01-12T21:47:33.035Z,125.60
2018-01-12T21:50:00.566Z,118.47
2018-01-12T21:52:28.078Z,105.37
2018-01-12T21:54:56.342Z,116.60
2018-01-12T21:57:23.860Z,117.97
2018-01-12T21:59:51.366Z,115.37
2018-01-12T22:02:18.873Z,112.20
2018-01-12T22:04:46.377Z,124.30
2018-01-12T22:07:13.897Z,119.47
2018-01-12T22:09:41.407Z,136.07
2018-01-12T22:12:08.900Z,119.10
2018-01-12T22:14:36.405Z,111.90
2018-01-12T22:17:03.901Z,124.47
2018-01-12T22:19:32.179Z,137.77
2018-01-12T22:22:00.440Z,118.33
2018-01-12T22:24:28.758Z,121.67
2018-01-12T22:26:56.250Z,130.13
2018-01-12T22:29:23.745Z,124.00
2018-01-12T22:31:52.024Z,156.73
2018-01-12T22:34:20.294Z,152.83
2018-01-12T22:36:48.572Z,112.93
2018-01-12T22:39:16.858Z,131.87
2018-01-12T22:41:45.125Z,114.70
2018-01-12T22:44:13.401Z,120.57
2018-01-12T22:46:41.687Z,113.83
2018-01-12T22:49:09.954Z,138.67
2018-01-12T22:51:38.262Z,211.50
2018-01-12T22:54:05.777Z,105.70
2018-01-12T22:56:33.269Z,111.93
2018-01-12T22:59:00.785Z,127.80
2018-01-12T23:01:28.282Z,129.20
2018-01-12T23:03:55.797Z,123.80
2018-01-12T23:06:23.286Z,126.03
2018-01-12T23:08:51.562Z,113.77
2018-01-12T23:11:19.817Z,119.60
2018-01-12T23:13:47.311Z,112.60
2018-01-12T23:16:15.613Z,114.43
2018-01-12T23:18:43.106Z,107.73
2018-01-12T23:21:10.625Z,108.17
2018-01-12T23:23:38.122Z,108.20
2018-01-12T23:26:05.669Z,210.17
2018-01-12T23:28:33.180Z,203.07
2018-01-12T23:31:00.702Z,153.00
2018-01-12T23:33:28.221Z,120.90
2018-01-12T23:35:55.725Z,117.30
2018-01-12T23:38:23.229Z,112.60
2018-01-12T23:40:50.725Z,121.67
2018-01-12T23:43:18.232Z,115.87
2018-01-12T23:45:46.550Z,118.97
2018-01-12T23:48:14.057Z,117.77
2018-01-12T23:50:42.437Z,120.33
2018-01-12T23:53:10.716Z,115.70
2018-01-12T23:55:38.986Z,111.27
2018-01-12T23:58:07.251Z,104.97
